sensor_id;sensor_type;location;lat;lon;timestamp;P1;durP1;ratioP1;P2;durP2;ratioP2
29452;SDS011;16424;50.956;5.320;2022-10-18T00:01:12;7.53;;;5.03;;
29452;SDS011;16424;50.956;5.320;2022-10-18T00:03:38;14.15;;;4.50;;
29452;SDS011;16424;50.956;5.320;2022-10-18T00:06:04;6.70;;;4.63;;
29452;SDS011;16424;50.956;5.320;2022-10-18T00:08:30;7.05;;;4.60;;
29452;SDS011;16424;50.956;5.320;2022-10-18T00:10:56;8.80;;;5.00;;
29452;SDS011;16424;50.956;5.320;2022-10-18T00:13:22;7.75;;;4.32;;
29452;SDS011;16424;50.956;5.320;2022-10-18T00:15:56;8.30;;;4.20;;
29452;SDS011;16424;50.956;5.320;2022-10-18T00:18:23;6.20;;;4.43;;
29452;SDS011;16424;50.956;5.320;2022-10-18T00:20:56;7.03;;;4.80;;
29452;SDS011;16424;50.956;5.320;2022-10-18T00:23:24;7.32;;;4.82;;
29452;SDS011;16424;50.956;5.320;2022-10-18T00:25:57;8.00;;;5.22;;
29452;SDS011;16424;50.956;5.320;2022-10-18T00:28:26;13.88;;;5.80;;
29452;SDS011;16424;50.956;5.320;2022-10-18T00:30:54;14.20;;;4.97;;
29452;SDS011;16424;50.956;5.320;2022-10-18T00:33:20;9.45;;;5.07;;
29452;SDS011;16424;50.956;5.320;2022-10-18T00:35:46;11.02;;;5.07;;
29452;SDS011;16424;50.956;5.320;2022-10-18T00:38:11;11.48;;;5.60;;
29452;SDS011;16424;50.956;5.320;2022-10-18T00:40:37;7.25;;;4.70;;
29452;SDS011;16424;50.956;5.320;2022-10-18T00:43:03;8.27;;;5.10;;
29452;SDS011;16424;50.956;5.320;2022-10-18T00:45:28;7.20;;;4.72;;
29452;SDS011;16424;50.956;5.320;2022-10-18T00:47:58;9.20;;;5.63;;
29452;SDS011;16424;50.956;5.320;2022-10-18T00:50:26;11.85;;;5.53;;
29452;SDS011;16424;50.956;5.320;2022-10-18T00:52:55;11.82;;;5.18;;
29452;SDS011;16424;50.956;5.320;2022-10-18T00:55:27;6.38;;;5.07;;
29452;SDS011;16424;50.956;5.320;2022-10-18T00:57:55;8.05;;;4.88;;
29452;SDS011;16424;50.956;5.320;2022-10-18T01:00:21;9.52;;;5.55;;
29452;SDS011;16424;50.956;5.320;2022-10-18T01:02:47;11.25;;;6.00;;
29452;SDS011;16424;50.956;5.320;2022-10-18T01:05:14;24.48;;;11.63;;
29452;SDS011;16424;50.956;5.320;2022-10-18T01:19:12;24.50;;;11.63;;
29452;SDS011;16424;50.956;5.320;2022-10-18T01:21:58;18.23;;;9.30;;
29452;SDS011;16424;50.956;5.320;2022-10-18T01:24:44;22.10;;;8.73;;
29452;SDS011;16424;50.956;5.320;2022-10-18T01:27:40;15.55;;;8.07;;
29452;SDS011;16424;50.956;5.320;2022-10-18T01:36:21;24.05;;;11.70;;
29452;SDS011;16424;50.956;5.320;2022-10-18T01:39:11;22.38;;;10.57;;
29452;SDS011;16424;50.956;5.320;2022-10-18T01:41:41;23.20;;;11.80;;
29452;SDS011;16424;50.956;5.320;2022-10-18T01:44:10;23.10;;;11.98;;
29452;SDS011;16424;50.956;5.320;2022-10-18T01:46:39;25.92;;;12.00;;
29452;SDS011;16424;50.956;5.320;2022-10-18T01:49:06;22.85;;;11.38;;
29452;SDS011;16424;50.956;5.320;2022-10-18T01:51:32;20.58;;;10.50;;
29452;SDS011;16424;50.956;5.320;2022-10-18T01:53:58;22.58;;;12.05;;
29452;SDS011;16424;50.956;5.320;2022-10-18T01:56:40;23.42;;;12.13;;
29452;SDS011;16424;50.956;5.320;2022-10-18T02:10:41;29.75;;;15.77;;
29452;SDS011;16424;50.956;5.320;2022-10-18T02:13:14;24.40;;;14.95;;
29452;SDS011;16424;50.956;5.320;2022-10-18T02:15:44;26.40;;;15.80;;
29452;SDS011;16424;50.956;5.320;2022-10-18T02:18:15;29.98;;;16.55;;
29452;SDS011;16424;50.956;5.320;2022-10-18T02:20:47;21.95;;;13.07;;
29452;SDS011;16424;50.956;5.320;2022-10-18T02:23:15;20.60;;;14.13;;
29452;SDS011;16424;50.956;5.320;2022-10-18T02:25:43;22.48;;;14.00;;
29452;SDS011;16424;50.956;5.320;2022-10-18T02:28:09;23.67;;;13.43;;
29452;SDS011;16424;50.956;5.320;2022-10-18T02:30:36;23.60;;;13.07;;
29452;SDS011;16424;50.956;5.320;2022-10-18T02:33:13;17.45;;;11.55;;
29452;SDS011;16424;50.956;5.320;2022-10-18T02:35:46;17.17;;;12.65;;
29452;SDS011;16424;50.956;5.320;2022-10-18T02:38:16;19.50;;;12.48;;
29452;SDS011;16424;50.956;5.320;2022-10-18T02:40:46;22.13;;;12.73;;
29452;SDS011;16424;50.956;5.320;2022-10-18T02:43:12;19.60;;;11.48;;
29452;SDS011;16424;50.956;5.320;2022-10-18T02:45:38;21.48;;;11.30;;
29452;SDS011;16424;50.956;5.320;2022-10-18T02:48:04;17.95;;;11.93;;
29452;SDS011;16424;50.956;5.320;2022-10-18T02:50:30;15.00;;;10.25;;
29452;SDS011;16424;50.956;5.320;2022-10-18T02:52:56;22.15;;;10.75;;
29452;SDS011;16424;50.956;5.320;2022-10-18T02:55:24;20.27;;;11.48;;
29452;SDS011;16424;50.956;5.320;2022-10-18T02:57:50;23.35;;;11.02;;
29452;SDS011;16424;50.956;5.320;2022-10-18T03:00:15;16.50;;;10.23;;
29452;SDS011;16424;50.956;5.320;2022-10-18T03:02:43;16.92;;;10.65;;
29452;SDS011;16424;50.956;5.320;2022-10-18T03:05:09;24.92;;;11.82;;
29452;SDS011;16424;50.956;5.320;2022-10-18T03:07:34;16.80;;;10.85;;
29452;SDS011;16424;50.956;5.320;2022-10-18T03:10:00;16.35;;;10.57;;
29452;SDS011;16424;50.956;5.320;2022-10-18T03:12:25;18.92;;;11.57;;
29452;SDS011;16424;50.956;5.320;2022-10-18T03:14:51;18.10;;;10.13;;
29452;SDS011;16424;50.956;5.320;2022-10-18T03:17:17;21.75;;;12.52;;
29452;SDS011;16424;50.956;5.320;2022-10-18T03:19:42;22.63;;;10.88;;
29452;SDS011;16424;50.956;5.320;2022-10-18T03:22:08;20.45;;;10.88;;
29452;SDS011;16424;50.956;5.320;2022-10-18T03:24:33;15.23;;;9.88;;
29452;SDS011;16424;50.956;5.320;2022-10-18T03:26:59;21.95;;;11.57;;
29452;SDS011;16424;50.956;5.320;2022-10-18T03:29:25;20.67;;;11.23;;
29452;SDS011;16424;50.956;5.320;2022-10-18T03:31:50;17.38;;;9.50;;
29452;SDS011;16424;50.956;5.320;2022-10-18T03:34:16;18.30;;;10.45;;
29452;SDS011;16424;50.956;5.320;2022-10-18T03:36:42;16.00;;;9.27;;
29452;SDS011;16424;50.956;5.320;2022-10-18T03:39:08;15.25;;;8.15;;
29452;SDS011;16424;50.956;5.320;2022-10-18T03:41:35;16.25;;;8.27;;
29452;SDS011;16424;50.956;5.320;2022-10-18T03:44:00;19.67;;;7.82;;
29452;SDS011;16424;50.956;5.320;2022-10-18T03:46:26;12.93;;;7.82;;
29452;SDS011;16424;50.956;5.320;2022-10-18T03:48:52;18.55;;;8.98;;
29452;SDS011;16424;50.956;5.320;2022-10-18T03:51:17;19.45;;;7.90;;
29452;SDS011;16424;50.956;5.320;2022-10-18T03:53:43;13.98;;;8.45;;
29452;SDS011;16424;50.956;5.320;2022-10-18T03:56:08;20.00;;;8.68;;
29452;SDS011;16424;50.956;5.320;2022-10-18T03:58:34;18.67;;;8.57;;
29452;SDS011;16424;50.956;5.320;2022-10-18T04:01:00;14.98;;;7.90;;
29452;SDS011;16424;50.956;5.320;2022-10-18T04:03:25;17.23;;;8.55;;
29452;SDS011;16424;50.956;5.320;2022-10-18T04:05:51;18.52;;;8.68;;
29452;SDS011;16424;50.956;5.320;2022-10-18T04:08:17;17.05;;;8.70;;
29452;SDS011;16424;50.956;5.320;2022-10-18T04:10:43;21.50;;;8.93;;
29452;SDS011;16424;50.956;5.320;2022-10-18T04:13:09;18.02;;;10.10;;
29452;SDS011;16424;50.956;5.320;2022-10-18T04:15:34;20.27;;;10.38;;
29452;SDS011;16424;50.956;5.320;2022-10-18T04:18:00;22.77;;;10.68;;
29452;SDS011;16424;50.956;5.320;2022-10-18T04:20:26;17.83;;;10.40;;
29452;SDS011;16424;50.956;5.320;2022-10-18T04:22:52;18.58;;;10.80;;
29452;SDS011;16424;50.956;5.320;2022-10-18T04:25:19;21.13;;;10.30;;
29452;SDS011;16424;50.956;5.320;2022-10-18T04:27:45;19.95;;;10.88;;
29452;SDS011;16424;50.956;5.320;2022-10-18T04:30:12;16.20;;;10.32;;
29452;SDS011;16424;50.956;5.320;2022-10-18T04:32:37;15.45;;;9.50;;
29452;SDS011;16424;50.956;5.320;2022-10-18T04:35:03;16.40;;;9.35;;
29452;SDS011;16424;50.956;5.320;2022-10-18T04:37:30;19.95;;;9.80;;
29452;SDS011;16424;50.956;5.320;2022-10-18T04:39:57;19.77;;;10.20;;
29452;SDS011;16424;50.956;5.320;2022-10-18T04:42:23;18.92;;;10.10;;
29452;SDS011;16424;50.956;5.320;2022-10-18T04:44:49;17.08;;;9.82;;
29452;SDS011;16424;50.956;5.320;2022-10-18T04:47:15;17.13;;;10.35;;
29452;SDS011;16424;50.956;5.320;2022-10-18T04:49:41;17.38;;;10.40;;
29452;SDS011;16424;50.956;5.320;2022-10-18T04:52:06;18.98;;;10.18;;
29452;SDS011;16424;50.956;5.320;2022-10-18T04:54:32;18.38;;;10.35;;
29452;SDS011;16424;50.956;5.320;2022-10-18T04:56:58;19.98;;;11.15;;
29452;SDS011;16424;50.956;5.320;2022-10-18T04:59:24;18.27;;;10.05;;
29452;SDS011;16424;50.956;5.320;2022-10-18T05:01:49;18.10;;;9.32;;
29452;SDS011;16424;50.956;5.320;2022-10-18T05:04:15;15.57;;;9.65;;
29452;SDS011;16424;50.956;5.320;2022-10-18T05:06:41;21.05;;;9.60;;
29452;SDS011;16424;50.956;5.320;2022-10-18T05:09:06;25.23;;;9.57;;
29452;SDS011;16424;50.956;5.320;2022-10-18T05:11:32;14.65;;;9.38;;
29452;SDS011;16424;50.956;5.320;2022-10-18T05:13:58;19.27;;;10.35;;
29452;SDS011;16424;50.956;5.320;2022-10-18T05:16:24;22.77;;;10.75;;
29452;SDS011;16424;50.956;5.320;2022-10-18T05:18:50;20.02;;;9.65;;
29452;SDS011;16424;50.956;5.320;2022-10-18T05:21:15;17.50;;;8.77;;
29452;SDS011;16424;50.956;5.320;2022-10-18T05:23:41;14.93;;;9.05;;
29452;SDS011;16424;50.956;5.320;2022-10-18T05:26:07;17.02;;;9.95;;
29452;SDS011;16424;50.956;5.320;2022-10-18T05:28:33;23.02;;;9.80;;
29452;SDS011;16424;50.956;5.320;2022-10-18T05:31:02;25.63;;;10.88;;
29452;SDS011;16424;50.956;5.320;2022-10-18T05:33:29;16.75;;;9.95;;
29452;SDS011;16424;50.956;5.320;2022-10-18T05:35:57;24.50;;;10.40;;
29452;SDS011;16424;50.956;5.320;2022-10-18T05:38:23;20.85;;;11.48;;
29452;SDS011;16424;50.956;5.320;2022-10-18T05:40:49;73.13;;;13.35;;
29452;SDS011;16424;50.956;5.320;2022-10-18T05:43:15;20.40;;;10.32;;
29452;SDS011;16424;50.956;5.320;2022-10-18T05:45:48;20.20;;;11.10;;
29452;SDS011;16424;50.956;5.320;2022-10-18T05:48:14;23.92;;;12.30;;
29452;SDS011;16424;50.956;5.320;2022-10-18T05:50:40;24.70;;;11.48;;
29452;SDS011;16424;50.956;5.320;2022-10-18T05:53:06;25.75;;;12.00;;
29452;SDS011;16424;50.956;5.320;2022-10-18T05:55:31;27.17;;;11.50;;
29452;SDS011;16424;50.956;5.320;2022-10-18T05:57:57;23.50;;;12.10;;
29452;SDS011;16424;50.956;5.320;2022-10-18T06:00:23;27.30;;;11.70;;
29452;SDS011;16424;50.956;5.320;2022-10-18T06:02:49;22.95;;;11.00;;
29452;SDS011;16424;50.956;5.320;2022-10-18T06:05:14;26.15;;;12.73;;
29452;SDS011;16424;50.956;5.320;2022-10-18T06:07:40;24.05;;;12.25;;
29452;SDS011;16424;50.956;5.320;2022-10-18T06:10:06;19.33;;;10.88;;
29452;SDS011;16424;50.956;5.320;2022-10-18T06:12:31;25.33;;;11.25;;
29452;SDS011;16424;50.956;5.320;2022-10-18T06:14:57;25.85;;;12.02;;
29452;SDS011;16424;50.956;5.320;2022-10-18T06:17:23;30.10;;;11.10;;
29452;SDS011;16424;50.956;5.320;2022-10-18T06:19:48;28.83;;;12.45;;
29452;SDS011;16424;50.956;5.320;2022-10-18T06:22:14;24.80;;;11.40;;
29452;SDS011;16424;50.956;5.320;2022-10-18T06:24:40;29.45;;;11.93;;
29452;SDS011;16424;50.956;5.320;2022-10-18T06:27:05;31.05;;;12.23;;
29452;SDS011;16424;50.956;5.320;2022-10-18T06:29:36;33.00;;;12.57;;
29452;SDS011;16424;50.956;5.320;2022-10-18T06:32:04;26.33;;;12.13;;
29452;SDS011;16424;50.956;5.320;2022-10-18T06:34:30;45.00;;;14.90;;
29452;SDS011;16424;50.956;5.320;2022-10-18T06:36:57;44.78;;;15.45;;
29452;SDS011;16424;50.956;5.320;2022-10-18T06:39:23;59.08;;;15.35;;
29452;SDS011;16424;50.956;5.320;2022-10-18T06:41:49;60.13;;;15.38;;
29452;SDS011;16424;50.956;5.320;2022-10-18T06:44:14;61.35;;;17.52;;
29452;SDS011;16424;50.956;5.320;2022-10-18T06:46:41;105.07;;;18.08;;
29452;SDS011;16424;50.956;5.320;2022-10-18T06:49:09;112.90;;;19.33;;
29452;SDS011;16424;50.956;5.320;2022-10-18T06:51:35;82.15;;;16.05;;
29452;SDS011;16424;50.956;5.320;2022-10-18T06:54:01;68.53;;;16.63;;
29452;SDS011;16424;50.956;5.320;2022-10-18T06:56:28;90.32;;;19.25;;
29452;SDS011;16424;50.956;5.320;2022-10-18T06:58:57;87.75;;;18.15;;
29452;SDS011;16424;50.956;5.320;2022-10-18T07:01:22;108.22;;;18.88;;
29452;SDS011;16424;50.956;5.320;2022-10-18T07:03:48;107.50;;;19.25;;
29452;SDS011;16424;50.956;5.320;2022-10-18T07:06:16;71.05;;;17.20;;
29452;SDS011;16424;50.956;5.320;2022-10-18T07:08:43;76.88;;;16.45;;
29452;SDS011;16424;50.956;5.320;2022-10-18T07:11:13;79.88;;;18.88;;
29452;SDS011;16424;50.956;5.320;2022-10-18T07:13:40;87.85;;;19.98;;
29452;SDS011;16424;50.956;5.320;2022-10-18T07:16:10;76.70;;;19.75;;
29452;SDS011;16424;50.956;5.320;2022-10-18T07:18:41;80.88;;;19.20;;
29452;SDS011;16424;50.956;5.320;2022-10-18T07:21:11;65.22;;;20.45;;
29452;SDS011;16424;50.956;5.320;2022-10-18T07:23:39;59.38;;;16.77;;
29452;SDS011;16424;50.956;5.320;2022-10-18T07:26:26;48.05;;;18.20;;
29452;SDS011;16424;50.956;5.320;2022-10-18T07:28:56;37.67;;;17.23;;
29452;SDS011;16424;50.956;5.320;2022-10-18T07:31:25;38.30;;;16.27;;
29452;SDS011;16424;50.956;5.320;2022-10-18T07:33:51;37.53;;;16.48;;
29452;SDS011;16424;50.956;5.320;2022-10-18T07:36:17;44.55;;;16.02;;
29452;SDS011;16424;50.956;5.320;2022-10-18T07:38:42;45.63;;;16.20;;
29452;SDS011;16424;50.956;5.320;2022-10-18T07:41:09;50.13;;;19.40;;
29452;SDS011;16424;50.956;5.320;2022-10-18T07:43:39;36.63;;;16.02;;
29452;SDS011;16424;50.956;5.320;2022-10-18T07:46:07;38.85;;;16.42;;
29452;SDS011;16424;50.956;5.320;2022-10-18T07:48:32;33.83;;;15.40;;
29452;SDS011;16424;50.956;5.320;2022-10-18T07:50:58;27.80;;;14.45;;
29452;SDS011;16424;50.956;5.320;2022-10-18T07:53:25;27.73;;;12.77;;
29452;SDS011;16424;50.956;5.320;2022-10-18T07:55:53;37.33;;;13.77;;
29452;SDS011;16424;50.956;5.320;2022-10-18T07:58:23;36.60;;;12.80;;
29452;SDS011;16424;50.956;5.320;2022-10-18T08:00:49;57.88;;;13.55;;
29452;SDS011;16424;50.956;5.320;2022-10-18T08:03:18;35.70;;;12.02;;
29452;SDS011;16424;50.956;5.320;2022-10-18T08:05:49;49.38;;;12.57;;
29452;SDS011;16424;50.956;5.320;2022-10-18T08:08:17;38.22;;;12.32;;
29452;SDS011;16424;50.956;5.320;2022-10-18T08:10:43;53.75;;;13.63;;
29452;SDS011;16424;50.956;5.320;2022-10-18T08:13:08;41.13;;;12.65;;
29452;SDS011;16424;50.956;5.320;2022-10-18T08:15:34;56.88;;;13.45;;
29452;SDS011;16424;50.956;5.320;2022-10-18T08:18:00;59.63;;;13.80;;
29452;SDS011;16424;50.956;5.320;2022-10-18T08:20:25;53.33;;;13.63;;
29452;SDS011;16424;50.956;5.320;2022-10-18T08:22:51;34.13;;;13.63;;
29452;SDS011;16424;50.956;5.320;2022-10-18T08:25:16;35.70;;;15.23;;
29452;SDS011;16424;50.956;5.320;2022-10-18T08:27:42;26.38;;;14.88;;
29452;SDS011;16424;50.956;5.320;2022-10-18T08:30:08;33.65;;;15.13;;
29452;SDS011;16424;50.956;5.320;2022-10-18T08:32:34;44.13;;;19.58;;
29452;SDS011;16424;50.956;5.320;2022-10-18T08:35:00;33.42;;;17.52;;
29452;SDS011;16424;50.956;5.320;2022-10-18T08:37:25;32.42;;;17.70;;
29452;SDS011;16424;50.956;5.320;2022-10-18T08:39:51;29.98;;;17.55;;
29452;SDS011;16424;50.956;5.320;2022-10-18T08:45:11;37.05;;;21.17;;
29452;SDS011;16424;50.956;5.320;2022-10-18T08:47:43;36.70;;;21.20;;
29452;SDS011;16424;50.956;5.320;2022-10-18T08:50:14;37.95;;;20.95;;
29452;SDS011;16424;50.956;5.320;2022-10-18T08:57:45;43.65;;;24.58;;
29452;SDS011;16424;50.956;5.320;2022-10-18T09:00:16;45.40;;;25.30;;
29452;SDS011;16424;50.956;5.320;2022-10-18T09:05:20;40.28;;;23.70;;
29452;SDS011;16424;50.956;5.320;2022-10-18T09:08:17;51.35;;;26.80;;
29452;SDS011;16424;50.956;5.320;2022-10-18T09:11:04;47.53;;;25.20;;
29452;SDS011;16424;50.956;5.320;2022-10-18T09:16:44;41.38;;;25.42;;
29452;SDS011;16424;50.956;5.320;2022-10-18T09:21:54;42.58;;;26.25;;
29452;SDS011;16424;50.956;5.320;2022-10-18T09:26:56;53.20;;;29.60;;
29452;SDS011;16424;50.956;5.320;2022-10-18T09:35:26;45.72;;;25.92;;
29452;SDS011;16424;50.956;5.320;2022-10-18T09:38:20;47.83;;;26.35;;
29452;SDS011;16424;50.956;5.320;2022-10-18T09:40:51;42.42;;;26.92;;
29452;SDS011;16424;50.956;5.320;2022-10-18T09:43:23;46.17;;;27.35;;
29452;SDS011;16424;50.956;5.320;2022-10-18T09:46:01;42.03;;;25.92;;
29452;SDS011;16424;50.956;5.320;2022-10-18T09:48:30;47.83;;;27.48;;
29452;SDS011;16424;50.956;5.320;2022-10-18T09:51:10;48.58;;;27.67;;
29452;SDS011;16424;50.956;5.320;2022-10-18T09:53:54;43.83;;;28.90;;
29452;SDS011;16424;50.956;5.320;2022-10-18T09:56:37;44.78;;;27.92;;
29452;SDS011;16424;50.956;5.320;2022-10-18T09:59:19;48.90;;;27.83;;
29452;SDS011;16424;50.956;5.320;2022-10-18T10:01:53;50.92;;;26.52;;
29452;SDS011;16424;50.956;5.320;2022-10-18T10:04:19;45.53;;;25.88;;
29452;SDS011;16424;50.956;5.320;2022-10-18T10:06:49;40.28;;;23.48;;
29452;SDS011;16424;50.956;5.320;2022-10-18T10:09:17;35.50;;;20.85;;
29452;SDS011;16424;50.956;5.320;2022-10-18T10:11:49;35.60;;;19.35;;
29452;SDS011;16424;50.956;5.320;2022-10-18T10:14:17;25.38;;;16.48;;
29452;SDS011;16424;50.956;5.320;2022-10-18T10:16:56;35.92;;;18.83;;
29452;SDS011;16424;50.956;5.320;2022-10-18T10:22:44;32.20;;;14.70;;
29452;SDS011;16424;50.956;5.320;2022-10-18T10:25:30;24.10;;;12.65;;
29452;SDS011;16424;50.956;5.320;2022-10-18T10:28:02;23.52;;;10.93;;
29452;SDS011;16424;50.956;5.320;2022-10-18T10:30:37;20.98;;;9.82;;
29452;SDS011;16424;50.956;5.320;2022-10-18T10:33:03;26.20;;;9.90;;
29452;SDS011;16424;50.956;5.320;2022-10-18T10:35:34;17.90;;;8.15;;
29452;SDS011;16424;50.956;5.320;2022-10-18T10:38:04;16.55;;;7.35;;
29452;SDS011;16424;50.956;5.320;2022-10-18T10:40:35;15.60;;;7.00;;
29452;SDS011;16424;50.956;5.320;2022-10-18T10:45:57;19.80;;;8.50;;
29452;SDS011;16424;50.956;5.320;2022-10-18T10:48:49;20.83;;;9.10;;
29452;SDS011;16424;50.956;5.320;2022-10-18T10:51:18;15.75;;;7.50;;
29452;SDS011;16424;50.956;5.320;2022-10-18T10:56:53;14.27;;;7.93;;
29452;SDS011;16424;50.956;5.320;2022-10-18T10:59:19;16.52;;;7.95;;
29452;SDS011;16424;50.956;5.320;2022-10-18T11:01:48;16.50;;;6.95;;
29452;SDS011;16424;50.956;5.320;2022-10-18T11:04:28;15.95;;;6.68;;
29452;SDS011;16424;50.956;5.320;2022-10-18T11:10:08;14.57;;;5.50;;
29452;SDS011;16424;50.956;5.320;2022-10-18T11:12:42;20.50;;;10.13;;
29452;SDS011;16424;50.956;5.320;2022-10-18T11:15:33;13.43;;;7.35;;
29452;SDS011;16424;50.956;5.320;2022-10-18T11:23:33;17.33;;;9.93;;
29452;SDS011;16424;50.956;5.320;2022-10-18T11:31:07;16.45;;;7.63;;
29452;SDS011;16424;50.956;5.320;2022-10-18T11:36:52;17.60;;;5.50;;
29452;SDS011;16424;50.956;5.320;2022-10-18T11:42:21;10.85;;;5.07;;
29452;SDS011;16424;50.956;5.320;2022-10-18T11:55:26;13.88;;;4.85;;
29452;SDS011;16424;50.956;5.320;2022-10-18T12:00:48;12.32;;;4.97;;
29452;SDS011;16424;50.956;5.320;2022-10-18T12:03:43;14.68;;;5.00;;
29452;SDS011;16424;50.956;5.320;2022-10-18T12:06:23;16.58;;;4.50;;
29452;SDS011;16424;50.956;5.320;2022-10-18T12:08:56;16.20;;;4.82;;
29452;SDS011;16424;50.956;5.320;2022-10-18T12:11:27;15.70;;;4.43;;
29452;SDS011;16424;50.956;5.320;2022-10-18T12:13:56;14.07;;;4.05;;
29452;SDS011;16424;50.956;5.320;2022-10-18T12:16:27;10.18;;;3.70;;
29452;SDS011;16424;50.956;5.320;2022-10-18T12:18:58;12.13;;;3.97;;
29452;SDS011;16424;50.956;5.320;2022-10-18T12:21:29;10.10;;;4.60;;
29452;SDS011;16424;50.956;5.320;2022-10-18T12:23:58;13.50;;;4.38;;
29452;SDS011;16424;50.956;5.320;2022-10-18T12:26:25;14.50;;;5.07;;
29452;SDS011;16424;50.956;5.320;2022-10-18T12:39:19;16.60;;;4.40;;
29452;SDS011;16424;50.956;5.320;2022-10-18T12:41:49;13.75;;;3.38;;
29452;SDS011;16424;50.956;5.320;2022-10-18T12:44:27;14.00;;;4.53;;
29452;SDS011;16424;50.956;5.320;2022-10-18T12:46:57;10.60;;;3.38;;
29452;SDS011;16424;50.956;5.320;2022-10-18T12:49:42;10.60;;;3.25;;
29452;SDS011;16424;50.956;5.320;2022-10-18T12:55:00;14.98;;;3.70;;
29452;SDS011;16424;50.956;5.320;2022-10-18T12:57:27;11.40;;;3.03;;
29452;SDS011;16424;50.956;5.320;2022-10-18T13:16:44;9.10;;;2.45;;
29452;SDS011;16424;50.956;5.320;2022-10-18T13:19:43;9.68;;;3.20;;
29452;SDS011;16424;50.956;5.320;2022-10-18T13:22:24;9.52;;;2.42;;
29452;SDS011;16424;50.956;5.320;2022-10-18T13:28:01;9.18;;;2.50;;
29452;SDS011;16424;50.956;5.320;2022-10-18T13:41:29;8.63;;;2.10;;
29452;SDS011;16424;50.956;5.320;2022-10-18T14:06:24;10.95;;;1.75;;
29452;SDS011;16424;50.956;5.320;2022-10-18T14:08:57;11.57;;;2.10;;
29452;SDS011;16424;50.956;5.320;2022-10-18T14:11:35;8.75;;;1.83;;
29452;SDS011;16424;50.956;5.320;2022-10-18T14:14:15;9.82;;;2.38;;
29452;SDS011;16424;50.956;5.320;2022-10-18T14:19:43;7.75;;;1.70;;
29452;SDS011;16424;50.956;5.320;2022-10-18T14:25:41;8.57;;;2.03;;
29452;SDS011;16424;50.956;5.320;2022-10-18T14:28:10;12.20;;;1.90;;
29452;SDS011;16424;50.956;5.320;2022-10-18T14:30:56;6.55;;;2.03;;
29452;SDS011;16424;50.956;5.320;2022-10-18T14:33:34;14.23;;;2.45;;
29452;SDS011;16424;50.956;5.320;2022-10-18T14:36:07;11.25;;;1.90;;
29452;SDS011;16424;50.956;5.320;2022-10-18T14:38:34;8.40;;;1.65;;
29452;SDS011;16424;50.956;5.320;2022-10-18T14:41:14;9.13;;;2.00;;
29452;SDS011;16424;50.956;5.320;2022-10-18T14:43:44;7.35;;;1.70;;
29452;SDS011;16424;50.956;5.320;2022-10-18T14:48:57;12.57;;;2.17;;
29452;SDS011;16424;50.956;5.320;2022-10-18T14:51:25;8.57;;;1.83;;
29452;SDS011;16424;50.956;5.320;2022-10-18T14:53:54;11.40;;;2.65;;
29452;SDS011;16424;50.956;5.320;2022-10-18T14:56:22;13.75;;;2.20;;
29452;SDS011;16424;50.956;5.320;2022-10-18T14:58:50;9.10;;;1.55;;
29452;SDS011;16424;50.956;5.320;2022-10-18T15:01:17;10.43;;;2.75;;
29452;SDS011;16424;50.956;5.320;2022-10-18T15:03:45;6.65;;;1.70;;
29452;SDS011;16424;50.956;5.320;2022-10-18T15:06:14;8.27;;;1.80;;
29452;SDS011;16424;50.956;5.320;2022-10-18T15:08:44;8.82;;;2.25;;
29452;SDS011;16424;50.956;5.320;2022-10-18T15:11:13;56.90;;;15.68;;
29452;SDS011;16424;50.956;5.320;2022-10-18T15:13:45;42.42;;;16.55;;
29452;SDS011;16424;50.956;5.320;2022-10-18T15:16:17;152.15;;;61.50;;
29452;SDS011;16424;50.956;5.320;2022-10-18T15:18:57;13.20;;;3.45;;
29452;SDS011;16424;50.956;5.320;2022-10-18T15:21:25;12.00;;;2.58;;
29452;SDS011;16424;50.956;5.320;2022-10-18T15:23:51;8.60;;;1.92;;
29452;SDS011;16424;50.956;5.320;2022-10-18T15:26:23;7.03;;;2.15;;
29452;SDS011;16424;50.956;5.320;2022-10-18T15:28:53;11.32;;;2.15;;
29452;SDS011;16424;50.956;5.320;2022-10-18T15:31:23;13.05;;;2.13;;
29452;SDS011;16424;50.956;5.320;2022-10-18T15:34:18;10.43;;;1.98;;
29452;SDS011;16424;50.956;5.320;2022-10-18T15:36:44;10.93;;;1.75;;
29452;SDS011;16424;50.956;5.320;2022-10-18T15:39:16;7.57;;;1.85;;
29452;SDS011;16424;50.956;5.320;2022-10-18T15:41:49;6.32;;;1.70;;
29452;SDS011;16424;50.956;5.320;2022-10-18T15:46:43;12.02;;;1.92;;
29452;SDS011;16424;50.956;5.320;2022-10-18T15:52:36;7.10;;;2.13;;
29452;SDS011;16424;50.956;5.320;2022-10-18T15:54:55;5.07;;;1.73;;
29452;SDS011;16424;50.956;5.320;2022-10-18T15:57:21;6.35;;;2.03;;
29452;SDS011;16424;50.956;5.320;2022-10-18T15:59:50;8.60;;;2.10;;
29452;SDS011;16424;50.956;5.320;2022-10-18T16:02:26;11.45;;;1.98;;
29452;SDS011;16424;50.956;5.320;2022-10-18T16:04:52;10.88;;;2.42;;
29452;SDS011;16424;50.956;5.320;2022-10-18T16:07:18;6.28;;;2.10;;
29452;SDS011;16424;50.956;5.320;2022-10-18T16:09:44;16.08;;;3.05;;
29452;SDS011;16424;50.956;5.320;2022-10-18T16:12:09;11.40;;;2.28;;
29452;SDS011;16424;50.956;5.320;2022-10-18T16:14:35;20.92;;;3.30;;
29452;SDS011;16424;50.956;5.320;2022-10-18T16:17:02;9.85;;;2.08;;
29452;SDS011;16424;50.956;5.320;2022-10-18T16:19:30;12.13;;;2.55;;
29452;SDS011;16424;50.956;5.320;2022-10-18T16:21:56;9.73;;;2.67;;
29452;SDS011;16424;50.956;5.320;2022-10-18T16:24:23;14.40;;;2.83;;
29452;SDS011;16424;50.956;5.320;2022-10-18T16:26:49;16.48;;;2.42;;
29452;SDS011;16424;50.956;5.320;2022-10-18T16:29:19;14.38;;;2.63;;
29452;SDS011;16424;50.956;5.320;2022-10-18T16:31:48;22.38;;;3.00;;
29452;SDS011;16424;50.956;5.320;2022-10-18T16:34:15;12.05;;;2.45;;
29452;SDS011;16424;50.956;5.320;2022-10-18T16:36:42;9.60;;;2.13;;
29452;SDS011;16424;50.956;5.320;2022-10-18T16:39:12;13.75;;;2.97;;
29452;SDS011;16424;50.956;5.320;2022-10-18T16:41:39;12.20;;;3.13;;
29452;SDS011;16424;50.956;5.320;2022-10-18T16:44:05;10.10;;;2.47;;
29452;SDS011;16424;50.956;5.320;2022-10-18T16:46:31;13.30;;;2.70;;
29452;SDS011;16424;50.956;5.320;2022-10-18T16:48:58;13.63;;;3.25;;
29452;SDS011;16424;50.956;5.320;2022-10-18T16:51:24;16.58;;;3.35;;
29452;SDS011;16424;50.956;5.320;2022-10-18T16:53:50;13.18;;;2.42;;
29452;SDS011;16424;50.956;5.320;2022-10-18T16:56:28;17.08;;;3.50;;
29452;SDS011;16424;50.956;5.320;2022-10-18T16:58:56;7.72;;;2.45;;
29452;SDS011;16424;50.956;5.320;2022-10-18T17:01:23;12.45;;;2.63;;
29452;SDS011;16424;50.956;5.320;2022-10-18T17:03:49;8.88;;;3.05;;
29452;SDS011;16424;50.956;5.320;2022-10-18T17:08:41;12.48;;;3.03;;
29452;SDS011;16424;50.956;5.320;2022-10-18T17:11:08;11.23;;;3.10;;
29452;SDS011;16424;50.956;5.320;2022-10-18T17:13:34;15.13;;;2.58;;
29452;SDS011;16424;50.956;5.320;2022-10-18T17:15:59;11.85;;;2.03;;
29452;SDS011;16424;50.956;5.320;2022-10-18T17:18:27;11.13;;;2.88;;
29452;SDS011;16424;50.956;5.320;2022-10-18T17:20:57;15.00;;;3.45;;
29452;SDS011;16424;50.956;5.320;2022-10-18T17:23:26;9.88;;;2.50;;
29452;SDS011;16424;50.956;5.320;2022-10-18T17:25:53;21.33;;;3.45;;
29452;SDS011;16424;50.956;5.320;2022-10-18T17:28:19;7.35;;;2.22;;
29452;SDS011;16424;50.956;5.320;2022-10-18T17:30:45;12.40;;;2.60;;
29452;SDS011;16424;50.956;5.320;2022-10-18T17:33:12;15.07;;;2.72;;
29452;SDS011;16424;50.956;5.320;2022-10-18T17:35:39;19.17;;;2.70;;
29452;SDS011;16424;50.956;5.320;2022-10-18T17:38:05;9.55;;;2.22;;
29452;SDS011;16424;50.956;5.320;2022-10-18T17:40:32;14.02;;;3.13;;
29452;SDS011;16424;50.956;5.320;2022-10-18T17:42:58;10.07;;;2.55;;